Time;durP1;ratioP1;P1;durP2;ratioP2;P2;SDS_P1;SDS_P2;PMS_P1;PMS_P2;Temp;Humidity;BMP_temperature;BMP_pressure;BME280_temperature;BME280_humidity;BME280_pressure;Samples;Min_cycle;Max_cycle;Signal;HPM_P1;HPM_P2
2021/05/13 00:00:45;;;;;;;28.80;16.17;;;;;;;;;;5086914;28;20047;-70
2021/05/13 00:03:11;;;;;;;27.35;17.40;;;;;;;;;;5090245;28;20057;-70
2021/05/13 00:05:37;;;;;;;23.10;14.93;;;;;;;;;;5083317;28;20033;-70
2021/05/13 00:08:03;;;;;;;34.13;18.98;;;;;;;;;;5089194;28;20119;-70
2021/05/13 00:10:29;;;;;;;27.27;16.90;;;;;;;;;;5090507;28;20039;-70
2021/05/13 00:12:59;;;;;;;30.80;16.25;;;;;;;;;;5094310;28;20701;-70
2021/05/13 00:15:32;;;;;;;29.23;17.42;;;;;;;;;;5086584;28;20031;-70
2021/05/13 00:17:58;;;;;;;29.35;18.00;;;;;;;;;;5088398;28;20031;-70
2021/05/13 00:20:30;;;;;;;32.75;16.98;;;;;;;;;;5076531;28;20043;-70
2021/05/13 00:22:56;;;;;;;29.35;17.23;;;;;;;;;;5088875;28;20155;-70
2021/05/13 00:25:22;;;;;;;27.20;17.58;;;;;;;;;;5094925;28;20044;-70
2021/05/13 00:27:48;;;;;;;28.27;17.55;;;;;;;;;;5087605;28;20021;-70
2021/05/13 00:30:15;;;;;;;29.63;17.42;;;;;;;;;;5078208;28;20043;-70
2021/05/13 00:32:41;;;;;;;26.88;15.57;;;;;;;;;;5085300;28;20085;-70
2021/05/13 00:35:08;;;;;;;27.00;16.77;;;;;;;;;;5093344;28;20079;-70
2021/05/13 00:37:34;;;;;;;31.08;16.30;;;;;;;;;;5072403;28;20123;-70
2021/05/13 00:40:00;;;;;;;25.23;16.20;;;;;;;;;;5074923;28;20063;-70
2021/05/13 00:42:26;;;;;;;28.52;16.98;;;;;;;;;;5089328;28;20035;-70
2021/05/13 00:44:54;;;;;;;26.50;14.90;;;;;;;;;;5073959;28;20047;-70
2021/05/13 00:47:20;;;;;;;32.72;17.42;;;;;;;;;;5086357;28;20024;-70
2021/05/13 00:49:46;;;;;;;27.13;15.27;;;;;;;;;;5086452;28;20028;-70
2021/05/13 00:52:13;;;;;;;21.33;15.02;;;;;;;;;;5078943;28;20033;-70
2021/05/13 00:54:40;;;;;;;27.13;15.95;;;;;;;;;;5091399;28;20024;-70
2021/05/13 00:57:07;;;;;;;22.98;14.50;;;;;;;;;;5076313;28;20036;-69
2021/05/13 00:59:36;;;;;;;20.80;14.98;;;;;;;;;;5092146;28;20024;-70
2021/05/13 01:02:02;;;;;;;22.20;14.27;;;;;;;;;;5094994;28;20115;-70
2021/05/13 01:04:28;;;;;;;26.08;16.20;;;;;;;;;;5090659;28;20028;-70
2021/05/13 01:06:55;;;;;;;26.25;15.20;;;;;;;;;;5093498;28;20028;-70
2021/05/13 01:09:23;;;;;;;24.60;16.02;;;;;;;;;;5091249;28;20024;-70
2021/05/13 01:11:53;;;;;;;27.92;17.20;;;;;;;;;;5093332;28;20120;-70
2021/05/13 01:14:26;;;;;;;29.23;17.30;;;;;;;;;;5072051;28;20012;-70
2021/05/13 01:17:54;;;;;;;25.50;17.20;;;;;;;;;;5094796;28;20081;-70
2021/05/13 01:19:46;;;;;;;24.20;15.82;;;;;;;;;;5063777;28;20050;-70
2021/05/13 01:22:13;;;;;;;28.20;18.17;;;;;;;;;;5062513;28;20117;-70
2021/05/13 01:24:40;;;;;;;31.05;16.58;;;;;;;;;;5087202;28;20050;-70
2021/05/13 01:27:06;;;;;;;27.92;17.33;;;;;;;;;;5090474;28;20031;-70
2021/05/13 01:29:32;;;;;;;27.38;16.63;;;;;;;;;;5091468;28;20032;-70
2021/05/13 01:31:58;;;;;;;29.42;17.73;;;;;;;;;;5075245;28;20496;-70
2021/05/13 01:34:24;;;;;;;30.45;17.48;;;;;;;;;;5086993;28;20023;-70
2021/05/13 01:36:50;;;;;;;27.80;17.58;;;;;;;;;;5087825;28;21141;-71
2021/05/13 01:39:16;;;;;;;29.27;17.48;;;;;;;;;;5083762;28;20024;-70
2021/05/13 01:41:43;;;;;;;35.00;19.67;;;;;;;;;;5090133;28;20078;-70
2021/05/13 01:44:09;;;;;;;29.63;18.08;;;;;;;;;;5092883;28;20028;-70
2021/05/13 01:46:36;;;;;;;26.17;16.88;;;;;;;;;;5085061;28;20059;-70
2021/05/13 01:49:02;;;;;;;30.50;18.45;;;;;;;;;;5092138;28;20024;-70
2021/05/13 01:51:28;;;;;;;30.58;18.27;;;;;;;;;;5069156;28;20028;-70
2021/05/13 01:53:55;;;;;;;30.27;18.52;;;;;;;;;;5075232;28;20028;-70
2021/05/13 01:56:21;;;;;;;33.25;18.55;;;;;;;;;;5076645;28;20086;-70
2021/05/13 01:58:47;;;;;;;26.60;18.75;;;;;;;;;;5082945;28;20043;-70
2021/05/13 02:01:14;;;;;;;23.33;16.98;;;;;;;;;;5085768;28;20036;-70
2021/05/13 02:03:41;;;;;;;26.73;18.23;;;;;;;;;;5086510;28;20119;-70
2021/05/13 02:06:07;;;;;;;29.92;17.67;;;;;;;;;;5071539;28;20031;-70
2021/05/13 02:08:33;;;;;;;29.10;18.35;;;;;;;;;;5091082;28;20031;-70
2021/05/13 02:10:59;;;;;;;25.42;16.05;;;;;;;;;;5091169;28;20039;-70
2021/05/13 02:13:25;;;;;;;32.22;17.10;;;;;;;;;;5092014;28;20020;-70
2021/05/13 02:15:52;;;;;;;27.33;17.70;;;;;;;;;;5082364;28;20120;-70
2021/05/13 02:18:21;;;;;;;32.25;18.15;;;;;;;;;;5058675;28;20032;-70
2021/05/13 02:20:48;;;;;;;28.17;18.85;;;;;;;;;;5085652;28;20024;-70
2021/05/13 02:23:14;;;;;;;30.85;19.20;;;;;;;;;;5083763;28;20040;-70
2021/05/13 02:25:43;;;;;;;31.40;19.48;;;;;;;;;;5078308;28;20029;-70
2021/05/13 02:28:09;;;;;;;33.13;18.85;;;;;;;;;;5082304;28;20025;-71
2021/05/13 02:30:35;;;;;;;36.15;21.95;;;;;;;;;;5080388;28;20028;-71
2021/05/13 02:33:01;;;;;;;32.28;21.42;;;;;;;;;;5088811;28;20043;-70
2021/05/13 02:35:27;;;;;;;36.28;22.42;;;;;;;;;;5091399;28;20024;-70
2021/05/13 02:37:53;;;;;;;33.35;20.33;;;;;;;;;;5088304;28;20041;-70
2021/05/13 02:40:19;;;;;;;34.45;23.15;;;;;;;;;;5089601;28;20020;-70
2021/05/13 02:42:46;;;;;;;33.50;21.88;;;;;;;;;;5085641;28;20032;-71
2021/05/13 02:45:12;;;;;;;34.92;22.98;;;;;;;;;;5089523;28;20031;-71
2021/05/13 02:47:38;;;;;;;38.08;23.25;;;;;;;;;;5089724;28;20020;-71
2021/05/13 02:50:06;;;;;;;35.80;23.80;;;;;;;;;;5088009;28;20040;-71
2021/05/13 02:52:32;;;;;;;39.67;25.20;;;;;;;;;;5066714;28;20101;-71
2021/05/13 02:54:58;;;;;;;38.08;25.05;;;;;;;;;;5086536;28;20092;-70
2021/05/13 02:57:24;;;;;;;31.60;23.15;;;;;;;;;;5082649;28;20508;-71
2021/05/13 03:00:15;;;;;;;40.08;25.85;;;;;;;;;;5081276;28;20024;-70
2021/05/13 03:02:41;;;;;;;37.90;25.23;;;;;;;;;;5080070;28;20110;-71
2021/05/13 03:05:07;;;;;;;45.70;27.80;;;;;;;;;;5085732;28;20135;-71
2021/05/13 03:07:44;;;;;;;45.28;25.10;;;;;;;;;;5085104;28;20418;-70
2021/05/13 03:10:21;;;;;;;43.60;27.63;;;;;;;;;;5090325;28;20102;-70
2021/05/13 03:12:50;;;;;;;45.20;29.05;;;;;;;;;;5089190;28;20059;-71
2021/05/13 03:15:16;;;;;;;48.20;30.40;;;;;;;;;;5069443;28;20051;-71
2021/05/13 03:17:43;;;;;;;54.28;31.17;;;;;;;;;;5089580;28;20106;-71
2021/05/13 03:20:12;;;;;;;52.10;31.52;;;;;;;;;;5061979;28;20556;-71
2021/05/13 03:22:38;;;;;;;51.67;30.50;;;;;;;;;;5085281;28;20029;-71
2021/05/13 03:25:06;;;;;;;44.30;28.95;;;;;;;;;;5084861;28;20029;-71
2021/05/13 03:30:05;;;;;;;41.88;30.25;;;;;;;;;;5089286;28;20032;-71
2021/05/13 03:32:32;;;;;;;47.20;30.10;;;;;;;;;;5083451;28;20036;-71
2021/05/13 03:34:58;;;;;;;46.10;29.25;;;;;;;;;;5090380;28;20047;-71
2021/05/13 03:37:27;;;;;;;52.92;31.30;;;;;;;;;;5081063;28;20024;-71
2021/05/13 03:39:54;;;;;;;50.05;31.52;;;;;;;;;;5090392;28;20032;-71
2021/05/13 03:42:20;;;;;;;49.92;31.10;;;;;;;;;;5089510;28;20024;-71
2021/05/13 03:44:46;;;;;;;49.60;31.42;;;;;;;;;;5089643;28;20023;-71
2021/05/13 03:47:12;;;;;;;50.08;31.55;;;;;;;;;;5079082;28;20039;-71
2021/05/13 03:49:38;;;;;;;45.67;29.88;;;;;;;;;;5079414;28;20035;-71
2021/05/13 03:52:04;;;;;;;48.63;30.40;;;;;;;;;;5086759;28;20027;-71
2021/05/13 03:54:30;;;;;;;49.60;31.48;;;;;;;;;;5085458;28;20495;-71
2021/05/13 03:56:57;;;;;;;51.45;30.20;;;;;;;;;;5087000;28;20021;-71
2021/05/13 03:59:23;;;;;;;50.90;32.45;;;;;;;;;;5082649;28;20050;-71
2021/05/13 04:04:16;;;;;;;52.63;33.08;;;;;;;;;;5089471;28;20127;-71
2021/05/13 04:06:42;;;;;;;47.22;31.80;;;;;;;;;;5081687;28;20058;-71
2021/05/13 04:09:09;;;;;;;49.17;32.97;;;;;;;;;;5078641;28;20051;-72
2021/05/13 04:11:38;;;;;;;50.35;32.97;;;;;;;;;;5076822;28;20115;-71
2021/05/13 04:14:05;;;;;;;54.35;34.80;;;;;;;;;;5058809;28;20091;-71
2021/05/13 04:16:33;;;;;;;57.80;36.58;;;;;;;;;;5082734;28;20398;-71
2021/05/13 04:18:59;;;;;;;55.63;35.17;;;;;;;;;;5078803;28;20025;-71
2021/05/13 04:21:25;;;;;;;56.53;36.88;;;;;;;;;;5074981;28;20510;-71
2021/05/13 04:23:52;;;;;;;56.45;34.33;;;;;;;;;;5071922;28;20033;-71
2021/05/13 04:26:18;;;;;;;57.40;35.58;;;;;;;;;;5072137;28;20519;-72
2021/05/13 04:28:44;;;;;;;54.67;36.00;;;;;;;;;;5086839;28;20077;-71
2021/05/13 04:31:10;;;;;;;63.88;39.22;;;;;;;;;;5083905;28;20078;-71
2021/05/13 04:33:36;;;;;;;56.70;35.88;;;;;;;;;;5066370;28;20021;-71
2021/05/13 04:36:02;;;;;;;55.42;38.33;;;;;;;;;;5087770;28;20020;-71
2021/05/13 04:38:28;;;;;;;59.60;38.90;;;;;;;;;;5085803;28;20043;-71
2021/05/13 04:40:54;;;;;;;57.38;38.67;;;;;;;;;;5085269;28;20028;-71
2021/05/13 04:43:20;;;;;;;60.70;41.20;;;;;;;;;;5087743;28;20039;-72
2021/05/13 04:45:47;;;;;;;60.70;39.38;;;;;;;;;;5085378;28;20035;-71
2021/05/13 04:48:17;;;;;;;59.85;42.20;;;;;;;;;;5085280;28;20507;-72
2021/05/13 04:50:43;;;;;;;60.67;40.65;;;;;;;;;;5088413;28;20032;-72
2021/05/13 04:53:11;;;;;;;71.70;42.85;;;;;;;;;;5089589;28;20028;-71
2021/05/13 04:55:38;;;;;;;67.80;44.13;;;;;;;;;;5072366;28;20098;-72
2021/05/13 04:58:05;;;;;;;64.13;44.10;;;;;;;;;;5069451;28;20484;-72
2021/05/13 05:00:31;;;;;;;66.35;43.05;;;;;;;;;;5092423;28;20055;-72
2021/05/13 05:02:58;;;;;;;67.32;42.60;;;;;;;;;;5087460;28;20068;-72
2021/05/13 05:05:24;;;;;;;65.53;44.05;;;;;;;;;;5090529;28;20081;-71
2021/05/13 05:07:51;;;;;;;64.00;42.58;;;;;;;;;;5081247;28;20449;-71
2021/05/13 05:10:17;;;;;;;64.68;43.95;;;;;;;;;;5087961;28;20135;-71
2021/05/13 05:12:43;;;;;;;62.40;40.67;;;;;;;;;;5091176;28;20069;-71
2021/05/13 05:15:10;;;;;;;62.80;43.33;;;;;;;;;;5087358;28;20031;-71
2021/05/13 05:17:36;;;;;;;58.55;39.08;;;;;;;;;;5070061;28;20036;-71
2021/05/13 05:20:02;;;;;;;57.08;41.33;;;;;;;;;;5087224;28;20029;-71
2021/05/13 05:22:28;;;;;;;64.63;43.67;;;;;;;;;;5070131;28;20050;-72
2021/05/13 05:24:54;;;;;;;66.28;44.53;;;;;;;;;;5085912;28;20032;-71
2021/05/13 05:27:20;;;;;;;63.38;44.22;;;;;;;;;;5088198;28;20032;-71
2021/05/13 05:29:46;;;;;;;64.65;42.42;;;;;;;;;;5085433;28;20035;-71
2021/05/13 05:32:12;;;;;;;63.78;41.30;;;;;;;;;;5091328;28;20491;-71
2021/05/13 05:34:38;;;;;;;72.10;45.17;;;;;;;;;;5080151;28;20040;-71
2021/05/13 05:37:04;;;;;;;71.35;45.05;;;;;;;;;;5085538;28;20051;-71
2021/05/13 05:39:30;;;;;;;69.15;44.50;;;;;;;;;;5077278;28;20023;-72
2021/05/13 05:41:56;;;;;;;67.15;45.60;;;;;;;;;;5073401;28;20032;-72
2021/05/13 05:44:23;;;;;;;71.15;51.08;;;;;;;;;;5092984;28;20028;-73
2021/05/13 05:46:50;;;;;;;68.28;48.55;;;;;;;;;;5090904;28;20198;-72
2021/05/13 05:49:16;;;;;;;75.22;48.47;;;;;;;;;;5079630;28;20028;-72
2021/05/13 05:51:42;;;;;;;73.25;48.05;;;;;;;;;;5081630;28;20448;-72
2021/05/13 05:54:08;;;;;;;77.03;49.08;;;;;;;;;;5056702;28;20459;-72
2021/05/13 05:56:34;;;;;;;74.53;48.25;;;;;;;;;;5090152;28;20065;-72
2021/05/13 05:59:01;;;;;;;69.95;47.03;;;;;;;;;;5090941;28;20024;-71
2021/05/13 06:01:27;;;;;;;69.47;45.92;;;;;;;;;;5081288;28;20032;-71
2021/05/13 06:03:54;;;;;;;71.30;47.78;;;;;;;;;;5084802;28;20103;-72
2021/05/13 06:06:20;;;;;;;74.68;51.47;;;;;;;;;;5088223;28;20116;-72
2021/05/13 06:08:46;;;;;;;71.32;47.95;;;;;;;;;;5074866;28;20031;-71
2021/05/13 06:11:13;;;;;;;66.15;45.13;;;;;;;;;;5068086;28;20054;-71
2021/05/13 06:13:39;;;;;;;64.53;43.15;;;;;;;;;;5078953;28;20020;-71
2021/05/13 06:16:05;;;;;;;68.85;47.42;;;;;;;;;;5092254;28;20016;-71
2021/05/13 06:18:31;;;;;;;69.00;48.08;;;;;;;;;;5090191;28;20102;-71
2021/05/13 06:20:57;;;;;;;68.30;44.35;;;;;;;;;;5083061;28;20073;-71
2021/05/13 06:23:23;;;;;;;77.03;47.90;;;;;;;;;;5075607;28;20456;-71
2021/05/13 06:25:49;;;;;;;69.25;47.33;;;;;;;;;;5076985;28;20024;-71
2021/05/13 06:28:15;;;;;;;70.20;47.13;;;;;;;;;;5084278;28;21058;-71
2021/05/13 06:30:45;;;;;;;69.75;44.50;;;;;;;;;;5090660;28;20028;-71
2021/05/13 06:33:11;;;;;;;64.00;43.00;;;;;;;;;;5084205;28;20422;-70
2021/05/13 06:35:37;;;;;;;64.10;45.22;;;;;;;;;;5072917;28;20053;-71
2021/05/13 06:38:03;;;;;;;67.10;45.75;;;;;;;;;;5088404;28;20020;-71
2021/05/13 06:40:29;;;;;;;70.97;49.08;;;;;;;;;;5090322;28;20692;-72
2021/05/13 06:42:55;;;;;;;68.53;45.53;;;;;;;;;;5072284;28;20503;-72
2021/05/13 06:45:21;;;;;;;64.35;45.55;;;;;;;;;;5088440;28;20085;-71
2021/05/13 06:47:47;;;;;;;66.55;46.47;;;;;;;;;;5090496;28;20099;-71
2021/05/13 06:50:14;;;;;;;63.83;47.20;;;;;;;;;;5090245;28;20043;-71
2021/05/13 06:52:40;;;;;;;63.30;44.03;;;;;;;;;;5086589;28;20521;-71
2021/05/13 06:55:07;;;;;;;61.65;45.95;;;;;;;;;;5090730;28;20380;-72
2021/05/13 06:57:33;;;;;;;69.88;46.58;;;;;;;;;;5090459;28;20490;-72
2021/05/13 06:59:59;;;;;;;65.50;44.97;;;;;;;;;;5089120;28;20032;-71
2021/05/13 07:02:26;;;;;;;67.68;43.47;;;;;;;;;;5088179;28;20028;-71
2021/05/13 07:04:52;;;;;;;69.18;45.63;;;;;;;;;;5089696;28;20115;-71
2021/05/13 07:07:19;;;;;;;58.53;42.55;;;;;;;;;;5088147;28;20039;-71
2021/05/13 07:09:46;;;;;;;66.03;41.58;;;;;;;;;;5089519;28;20127;-71
2021/05/13 07:12:12;;;;;;;66.00;46.88;;;;;;;;;;5088529;28;20027;-72
2021/05/13 07:14:38;;;;;;;64.00;44.28;;;;;;;;;;5068294;28;20024;-72
2021/05/13 07:17:04;;;;;;;62.58;43.40;;;;;;;;;;5086225;28;20012;-72
2021/05/13 07:19:30;;;;;;;64.78;45.88;;;;;;;;;;5078502;28;20020;-72
2021/05/13 07:21:57;;;;;;;61.13;43.67;;;;;;;;;;5085560;28;20027;-71
2021/05/13 07:24:23;;;;;;;60.03;40.97;;;;;;;;;;5084810;28;20157;-71
2021/05/13 07:26:49;;;;;;;57.55;42.22;;;;;;;;;;5069690;28;20036;-72
2021/05/13 07:29:15;;;;;;;60.72;42.40;;;;;;;;;;5088914;28;20225;-71
2021/05/13 07:31:41;;;;;;;57.75;43.70;;;;;;;;;;5088497;28;20139;-72
2021/05/13 07:34:07;;;;;;;63.10;43.45;;;;;;;;;;5081715;28;20154;-72
2021/05/13 07:36:33;;;;;;;61.63;42.72;;;;;;;;;;5081949;28;20021;-72
2021/05/13 07:38:59;;;;;;;60.53;44.10;;;;;;;;;;5077233;28;20560;-71
2021/05/13 07:41:25;;;;;;;60.97;42.17;;;;;;;;;;5080021;28;20556;-72
2021/05/13 07:43:53;;;;;;;59.25;41.38;;;;;;;;;;5084920;28;20024;-71
2021/05/13 07:46:20;;;;;;;58.28;40.78;;;;;;;;;;5065222;28;20039;-72
2021/05/13 07:48:48;;;;;;;56.90;41.50;;;;;;;;;;5077281;28;20032;-72
2021/05/13 07:51:15;;;;;;;62.58;43.28;;;;;;;;;;5084822;28;20051;-72
2021/05/13 07:53:41;;;;;;;55.33;41.10;;;;;;;;;;5059620;28;20039;-72
2021/05/13 07:56:08;;;;;;;55.47;41.30;;;;;;;;;;5088933;28;20035;-72
2021/05/13 07:58:34;;;;;;;57.15;39.78;;;;;;;;;;5081930;28;20024;-72
2021/05/13 08:01:00;;;;;;;54.70;39.17;;;;;;;;;;5086145;28;20071;-72
2021/05/13 08:03:26;;;;;;;57.10;38.95;;;;;;;;;;5082678;28;20052;-71
2021/05/13 08:05:52;;;;;;;52.75;38.83;;;;;;;;;;5081352;28;20032;-71
2021/05/13 08:08:18;;;;;;;49.45;40.42;;;;;;;;;;5082058;28;20043;-72
2021/05/13 08:10:44;;;;;;;56.42;40.78;;;;;;;;;;5066151;28;20016;-71
2021/05/13 08:13:10;;;;;;;50.67;36.53;;;;;;;;;;5088612;28;20021;-71
2021/05/13 08:15:36;;;;;;;53.90;39.15;;;;;;;;;;5083149;28;20043;-72
2021/05/13 08:18:02;;;;;;;49.20;33.90;;;;;;;;;;5063090;28;20036;-71
2021/05/13 08:20:28;;;;;;;45.50;35.47;;;;;;;;;;5085555;28;20032;-72
2021/05/13 08:22:54;;;;;;;54.83;37.05;;;;;;;;;;5084567;28;20506;-72
2021/05/13 08:25:21;;;;;;;51.88;35.15;;;;;;;;;;5076666;28;20028;-72
2021/05/13 08:27:47;;;;;;;51.60;35.10;;;;;;;;;;5072121;28;20029;-72
2021/05/13 08:30:14;;;;;;;51.03;34.75;;;;;;;;;;5077152;28;20032;-72
2021/05/13 08:32:40;;;;;;;48.08;36.05;;;;;;;;;;5055741;28;20016;-71
2021/05/13 08:35:06;;;;;;;51.10;34.10;;;;;;;;;;5063432;28;20020;-72
2021/05/13 08:37:32;;;;;;;51.25;35.53;;;;;;;;;;5076170;28;20495;-72
2021/05/13 08:39:58;;;;;;;53.20;37.67;;;;;;;;;;5082779;28;20644;-72
2021/05/13 08:42:24;;;;;;;52.75;36.33;;;;;;;;;;5080851;28;20118;-71
2021/05/13 08:44:51;;;;;;;47.78;35.67;;;;;;;;;;5069144;28;20047;-72
2021/05/13 08:47:18;;;;;;;48.28;33.72;;;;;;;;;;5086009;28;20020;-72
2021/05/13 08:49:44;;;;;;;45.03;32.58;;;;;;;;;;5084874;28;20017;-72
2021/05/13 08:52:12;;;;;;;42.53;31.52;;;;;;;;;;5082993;28;20025;-72
2021/05/13 08:54:51;;;;;;;46.30;33.10;;;;;;;;;;5090299;28;20027;-72
2021/05/13 08:57:17;;;;;;;45.25;31.48;;;;;;;;;;5088527;28;21266;-71
2021/05/13 08:59:43;;;;;;;41.47;33.25;;;;;;;;;;5071585;28;20020;-72
2021/05/13 09:02:10;;;;;;;45.42;33.53;;;;;;;;;;5080551;28;20097;-73
2021/05/13 09:04:37;;;;;;;45.05;33.58;;;;;;;;;;5084623;28;20443;-72
2021/05/13 09:07:30;;;;;;;41.88;31.50;;;;;;;;;;5061827;28;20016;-72
2021/05/13 09:09:56;;;;;;;46.78;29.95;;;;;;;;;;5084730;28;20036;-72
2021/05/13 09:12:23;;;;;;;43.42;30.98;;;;;;;;;;5089966;28;20028;-72
2021/05/13 09:15:00;;;;;;;44.65;31.60;;;;;;;;;;5089852;28;20163;-72
2021/05/13 09:17:26;;;;;;;38.30;29.90;;;;;;;;;;5069868;28;20020;-71
2021/05/13 09:19:53;;;;;;;42.70;31.80;;;;;;;;;;5091625;28;20522;-73
2021/05/13 09:22:21;;;;;;;37.47;27.42;;;;;;;;;;5088683;28;20028;-70
2021/05/13 09:24:47;;;;;;;43.30;31.33;;;;;;;;;;5088104;28;20032;-73
2021/05/13 09:27:14;;;;;;;38.65;30.52;;;;;;;;;;5084132;28;20031;-75
2021/05/13 09:29:40;;;;;;;42.67;29.33;;;;;;;;;;5089161;28;20499;-74
2021/05/13 09:32:20;;;;;;;42.33;27.98;;;;;;;;;;5087159;28;20037;-72
2021/05/13 09:34:46;;;;;;;44.90;31.10;;;;;;;;;;5090319;28;20016;-72
2021/05/13 09:37:12;;;;;;;40.65;30.92;;;;;;;;;;5062423;28;20085;-73
2021/05/13 09:39:45;;;;;;;38.38;27.15;;;;;;;;;;5088362;28;20036;-74
2021/05/13 09:42:11;;;;;;;40.95;30.02;;;;;;;;;;5087995;28;20020;-76
2021/05/13 09:44:38;;;;;;;37.85;28.73;;;;;;;;;;5082588;28;20036;-76
2021/05/13 09:47:13;;;;;;;41.90;28.00;;;;;;;;;;5085675;28;20028;-73
2021/05/13 09:49:57;;;;;;;39.63;27.73;;;;;;;;;;5070371;28;20028;-74
2021/05/13 09:52:35;;;;;;;42.38;28.80;;;;;;;;;;5086601;28;20020;-75
2021/05/13 09:55:08;;;;;;;42.80;30.23;;;;;;;;;;5085581;28;20022;-75
2021/05/13 09:57:34;;;;;;;47.40;31.98;;;;;;;;;;5068640;28;20020;-77
2021/05/13 10:00:00;;;;;;;41.05;30.45;;;;;;;;;;5072217;28;20032;-76
2021/05/13 10:02:26;;;;;;;41.67;31.13;;;;;;;;;;5059596;28;20036;-76
2021/05/13 10:04:53;;;;;;;46.95;31.25;;;;;;;;;;5071658;28;20049;-80
2021/05/13 10:07:19;;;;;;;42.10;30.45;;;;;;;;;;5063091;28;20024;-75
2021/05/13 10:09:46;;;;;;;44.55;32.88;;;;;;;;;;5090117;28;20028;-77
2021/05/13 10:12:14;;;;;;;43.25;31.20;;;;;;;;;;5087299;28;20098;-76
2021/05/13 10:14:40;;;;;;;42.95;30.45;;;;;;;;;;5085872;28;20032;-76
2021/05/13 10:17:07;;;;;;;43.08;32.47;;;;;;;;;;5081682;28;20020;-77
2021/05/13 10:19:38;;;;;;;45.78;31.95;;;;;;;;;;5072109;28;20024;-75
2021/05/13 10:22:05;;;;;;;42.40;31.63;;;;;;;;;;5076662;28;20066;-74
2021/05/13 10:24:31;;;;;;;41.63;29.58;;;;;;;;;;5090048;28;20020;-74
2021/05/13 10:26:57;;;;;;;44.30;30.17;;;;;;;;;;5077195;28;20047;-75
2021/05/13 10:29:23;;;;;;;40.45;28.33;;;;;;;;;;5072624;28;20040;-73
2021/05/13 10:32:01;;;;;;;45.90;30.80;;;;;;;;;;5072399;28;20029;-74
2021/05/13 10:34:45;;;;;;;39.30;28.90;;;;;;;;;;5085524;28;20008;-75
2021/05/13 10:37:12;;;;;;;40.28;28.50;;;;;;;;;;5080420;28;20032;-79
2021/05/13 10:39:57;;;;;;;43.13;28.98;;;;;;;;;;5080861;28;20025;-75
2021/05/13 10:42:33;;;;;;;38.60;28.52;;;;;;;;;;5078896;28;20028;-75
2021/05/13 10:44:59;;;;;;;40.15;29.50;;;;;;;;;;5079676;28;20032;-78
2021/05/13 10:47:29;;;;;;;41.05;30.42;;;;;;;;;;5075970;28;20032;-78
2021/05/13 10:49:55;;;;;;;41.20;28.60;;;;;;;;;;5060920;28;20031;-76
2021/05/13 10:52:35;;;;;;;42.50;28.45;;;;;;;;;;5063771;28;20024;-77
2021/05/13 10:55:02;;;;;;;37.17;28.83;;;;;;;;;;5081807;28;20074;-76
2021/05/13 10:57:45;;;;;;;43.83;29.92;;;;;;;;;;5078569;28;20022;-77
2021/05/13 11:00:17;;;;;;;35.85;27.73;;;;;;;;;;5077180;28;20051;-74
2021/05/13 11:02:45;;;;;;;40.88;26.10;;;;;;;;;;5077591;28;20120;-74
2021/05/13 11:05:33;;;;;;;36.28;25.15;;;;;;;;;;5084461;28;20036;-75
2021/05/13 11:08:04;;;;;;;36.55;25.70;;;;;;;;;;5078853;28;20047;-73
2021/05/13 11:10:52;;;;;;;33.45;24.15;;;;;;;;;;5055316;28;20056;-75
2021/05/13 11:13:18;;;;;;;32.78;24.20;;;;;;;;;;5082013;28;20265;-74
2021/05/13 11:15:50;;;;;;;35.58;23.90;;;;;;;;;;5081369;28;20024;-73
2021/05/13 11:18:18;;;;;;;32.78;23.90;;;;;;;;;;5065668;28;20024;-74
2021/05/13 11:20:47;;;;;;;37.60;23.63;;;;;;;;;;5083041;28;20048;-73
2021/05/13 11:23:20;;;;;;;27.63;20.85;;;;;;;;;;5066289;28;20035;-74
2021/05/13 11:25:46;;;;;;;26.55;17.58;;;;;;;;;;5081984;28;20032;-74
2021/05/13 11:28:31;;;;;;;29.67;17.58;;;;;;;;;;5060770;28;20020;-74
2021/05/13 11:30:57;;;;;;;25.88;17.20;;;;;;;;;;5066000;28;20059;-74
2021/05/13 11:33:23;;;;;;;27.25;17.17;;;;;;;;;;5087826;28;20020;-73
2021/05/13 11:35:50;;;;;;;30.02;16.80;;;;;;;;;;5078357;28;20034;-73
2021/05/13 11:38:17;;;;;;;25.33;15.77;;;;;;;;;;5076065;28;20480;-74
2021/05/13 11:40:43;;;;;;;24.67;16.50;;;;;;;;;;5077366;28;20020;-73
2021/05/13 11:43:18;;;;;;;23.00;14.98;;;;;;;;;;5064924;28;20012;-73
2021/05/13 11:45:45;;;;;;;21.17;13.63;;;;;;;;;;5067444;28;20024;-75
2021/05/13 11:48:21;;;;;;;20.65;11.98;;;;;;;;;;5082606;28;20035;-74
2021/05/13 11:50:47;;;;;;;22.95;13.05;;;;;;;;;;5064194;28;20024;-74
2021/05/13 11:53:14;;;;;;;22.23;12.23;;;;;;;;;;5082698;28;20032;-73
2021/05/13 11:55:41;;;;;;;20.05;11.18;;;;;;;;;;5083562;28;20046;-73
2021/05/13 11:58:11;;;;;;;22.98;11.35;;;;;;;;;;5074155;28;20024;-75
2021/05/13 12:00:38;;;;;;;21.73;10.30;;;;;;;;;;5070117;28;20052;-73
2021/05/13 12:03:14;;;;;;;18.48;11.13;;;;;;;;;;5079411;28;20094;-72
2021/05/13 12:05:46;;;;;;;20.60;13.63;;;;;;;;;;5083239;28;20525;-73
2021/05/13 12:08:16;;;;;;;22.00;14.93;;;;;;;;;;5084569;28;20032;-72
2021/05/13 12:10:42;;;;;;;25.85;14.50;;;;;;;;;;5087745;28;20028;-72
2021/05/13 12:13:08;;;;;;;24.58;14.95;;;;;;;;;;5088076;28;20491;-73
2021/05/13 12:15:35;;;;;;;24.17;13.50;;;;;;;;;;5080108;28;20032;-73
2021/05/13 12:18:01;;;;;;;25.50;12.18;;;;;;;;;;5085929;28;20629;-74
2021/05/13 12:20:27;;;;;;;24.58;11.93;;;;;;;;;;5087613;28;20024;-74
2021/05/13 12:22:53;;;;;;;18.00;10.38;;;;;;;;;;5085374;28;20024;-72
2021/05/13 12:25:19;;;;;;;20.83;10.57;;;;;;;;;;5083660;28;20036;-72
2021/05/13 12:27:46;;;;;;;24.15;10.35;;;;;;;;;;5062359;28;20054;-72
2021/05/13 12:30:12;;;;;;;20.45;12.02;;;;;;;;;;5079292;28;20079;-72
2021/05/13 12:32:38;;;;;;;30.55;14.95;;;;;;;;;;5083118;28;20499;-72
2021/05/13 12:35:21;;;;;;;30.88;16.77;;;;;;;;;;5080913;28;20019;-72
2021/05/13 12:37:47;;;;;;;26.73;16.48;;;;;;;;;;5075283;28;20019;-72
2021/05/13 12:40:14;;;;;;;29.60;17.48;;;;;;;;;;5077394;28;20020;-71
2021/05/13 12:42:41;;;;;;;34.08;18.17;;;;;;;;;;5079249;28;20035;-72
2021/05/13 12:45:14;;;;;;;30.13;16.73;;;;;;;;;;5081730;28;20025;-71
2021/05/13 12:47:40;;;;;;;31.25;17.35;;;;;;;;;;5077829;28;20087;-71
2021/05/13 12:50:07;;;;;;;31.00;18.05;;;;;;;;;;5082235;28;20490;-71
2021/05/13 12:52:33;;;;;;;27.17;16.20;;;;;;;;;;5081503;28;20105;-70
2021/05/13 12:55:11;;;;;;;25.45;15.55;;;;;;;;;;5082134;28;20429;-70
2021/05/13 12:57:38;;;;;;;25.30;15.77;;;;;;;;;;5079322;28;20080;-71
2021/05/13 13:00:05;;;;;;;19.98;13.70;;;;;;;;;;5082184;28;20035;-69
2021/05/13 13:02:31;;;;;;;25.17;15.10;;;;;;;;;;5079487;28;20089;-71
2021/05/13 13:05:01;;;;;;;24.55;13.70;;;;;;;;;;5083581;28;20762;-71
2021/05/13 13:07:36;;;;;;;24.00;14.38;;;;;;;;;;5079081;28;20487;-71
2021/05/13 13:10:21;;;;;;;24.30;15.43;;;;;;;;;;5067107;28;20131;-69
2021/05/13 13:12:48;;;;;;;31.17;16.38;;;;;;;;;;5064511;28;20020;-72
2021/05/13 13:15:31;;;;;;;22.52;15.52;;;;;;;;;;5076868;28;20070;-71
2021/05/13 13:18:00;;;;;;;23.65;12.75;;;;;;;;;;5055242;28;20036;-69
2021/05/13 13:20:28;;;;;;;25.25;14.68;;;;;;;;;;5079965;28;20039;-67
2021/05/13 13:22:55;;;;;;;21.98;11.63;;;;;;;;;;5081501;28;21049;-68
2021/05/13 13:25:21;;;;;;;16.27;7.13;;;;;;;;;;5065416;28;20150;-68
2021/05/13 13:27:47;;;;;;;17.75;8.10;;;;;;;;;;5076589;28;20024;-67
2021/05/13 13:30:14;;;;;;;24.95;10.77;;;;;;;;;;5087908;28;20053;-68
2021/05/13 13:32:42;;;;;;;21.35;10.32;;;;;;;;;;5089224;28;20012;-68
2021/05/13 13:35:12;;;;;;;23.98;10.25;;;;;;;;;;5066997;28;20028;-69
2021/05/13 13:37:39;;;;;;;25.33;11.63;;;;;;;;;;5082200;28;20020;-68
2021/05/13 13:40:05;;;;;;;26.77;12.55;;;;;;;;;;5083252;28;20050;-70
2021/05/13 13:42:32;;;;;;;25.48;12.25;;;;;;;;;;5082404;28;20024;-68
2021/05/13 13:44:59;;;;;;;30.35;14.98;;;;;;;;;;5084291;28;20028;-69
2021/05/13 13:47:25;;;;;;;29.52;13.73;;;;;;;;;;5081297;28;20111;-68
2021/05/13 13:49:52;;;;;;;35.38;15.90;;;;;;;;;;5083437;28;20036;-68
2021/05/13 13:52:18;;;;;;;29.63;14.93;;;;;;;;;;5082760;28;20090;-68
2021/05/13 13:54:44;;;;;;;28.40;14.88;;;;;;;;;;5080900;28;20032;-68
2021/05/13 13:57:10;;;;;;;31.95;15.15;;;;;;;;;;5077627;28;20568;-66
2021/05/13 13:59:36;;;;;;;31.35;18.30;;;;;;;;;;5087777;28;20106;-68
2021/05/13 14:02:02;;;;;;;28.42;17.42;;;;;;;;;;5090904;28;20044;-67
2021/05/13 14:04:28;;;;;;;34.08;20.65;;;;;;;;;;5088299;28;20040;-67
2021/05/13 14:06:54;;;;;;;38.08;24.27;;;;;;;;;;5065254;28;20485;-67
2021/05/13 14:09:20;;;;;;;40.20;25.52;;;;;;;;;;5060983;28;20070;-67
2021/05/13 14:11:47;;;;;;;33.85;22.88;;;;;;;;;;5087925;28;20028;-67
2021/05/13 14:14:13;;;;;;;36.45;18.02;;;;;;;;;;5076780;28;20017;-66
2021/05/13 14:16:41;;;;;;;29.90;15.90;;;;;;;;;;5073168;28;20017;-67
2021/05/13 14:19:07;;;;;;;31.83;13.88;;;;;;;;;;5084243;28;20091;-65
2021/05/13 14:21:33;;;;;;;33.22;15.93;;;;;;;;;;5081331;28;20028;-67
2021/05/13 14:23:59;;;;;;;27.67;13.88;;;;;;;;;;5087183;28;20020;-67